Time;durP1;ratioP1;P1;durP2;ratioP2;P2;SDS_P1;SDS_P2;PMS_P1;PMS_P2;Temp;Humidity;BMP_temperature;BMP_pressure;BME280_temperature;BME280_humidity;BME280_pressure;Samples;Min_cycle;Max_cycle;Signal;HPM_P1;HPM_P2
2021/11/11 00:01:36;;;;;;;19.98;11.73;;;;;;;0.49;65.03;102934.27;1804251;79;25738;-63
2021/11/11 00:04:04;;;;;;;18.60;11.05;;;;;;;0.44;65.34;102925.05;1809640;79;25785;-63
2021/11/11 00:06:31;;;;;;;16.80;11.78;;;;;;;0.41;65.74;102932.13;1808981;77;26407;-63
2021/11/11 00:08:58;;;;;;;20.37;12.15;;;;;;;0.39;67.00;102924.67;1810695;78;25794;-63
2021/11/11 00:11:25;;;;;;;23.70;13.35;;;;;;;0.33;66.60;102926.04;1810603;79;27431;-63
2021/11/11 00:13:52;;;;;;;22.82;12.28;;;;;;;0.34;66.30;102917.20;1787088;79;25771;-64
2021/11/11 00:16:20;;;;;;;19.60;12.53;;;;;;;0.35;66.64;102911.92;1735604;82;25914;-63
2021/11/11 00:18:47;;;;;;;23.45;13.48;;;;;;;0.37;66.22;102909.23;1757589;81;25962;-64
2021/11/11 00:21:13;;;;;;;19.73;11.83;;;;;;;0.36;66.79;102916.29;1757505;81;25782;-64
2021/11/11 00:23:42;;;;;;;19.67;13.13;;;;;;;0.33;66.50;102904.43;1758422;80;27499;-63
2021/11/11 00:26:10;;;;;;;22.60;12.43;;;;;;;0.31;66.28;102895.16;1763887;80;25785;-63
2021/11/11 00:28:37;;;;;;;21.42;11.65;;;;;;;0.35;66.28;102884.55;1753930;80;26534;-63
2021/11/11 00:31:04;;;;;;;19.98;12.93;;;;;;;0.34;66.13;102888.98;1731842;81;25774;-62
2021/11/11 00:33:31;;;;;;;19.12;12.10;;;;;;;0.35;66.05;102873.95;1804034;79;25771;-63
2021/11/11 00:35:58;;;;;;;19.45;11.22;;;;;;;0.36;66.03;102870.41;1806681;78;27423;-63
2021/11/11 00:38:25;;;;;;;22.67;12.53;;;;;;;0.36;65.97;102869.09;1808995;78;26472;-63
2021/11/11 00:40:52;;;;;;;19.12;12.47;;;;;;;0.35;66.48;102861.61;1810427;79;25823;-64
2021/11/11 00:43:19;;;;;;;20.55;12.23;;;;;;;0.36;66.29;102865.12;1810491;79;25868;-64
2021/11/11 00:45:47;;;;;;;23.05;12.18;;;;;;;0.34;66.74;102851.02;1810475;79;25742;-64
2021/11/11 00:48:14;;;;;;;18.35;10.78;;;;;;;0.29;66.51;102853.28;1781900;79;27444;-64
2021/11/11 00:50:41;;;;;;;24.95;12.85;;;;;;;0.28;67.70;102851.96;1735557;82;25831;-64
2021/11/11 00:53:08;;;;;;;21.80;12.33;;;;;;;0.26;66.92;102859.06;1765963;81;25719;-64
2021/11/11 00:55:37;;;;;;;23.07;12.50;;;;;;;0.24;66.87;102845.83;1738483;80;26130;-64
2021/11/11 00:58:12;;;;;;;28.67;12.95;;;;;;;0.22;66.68;102845.00;1738343;80;25722;-64
2021/11/11 01:00:41;;;;;;;23.25;13.45;;;;;;;0.22;66.83;102848.97;1755791;81;28232;-63
2021/11/11 01:03:09;;;;;;;20.02;11.60;;;;;;;0.25;66.60;102838.78;1750770;81;25826;-64
2021/11/11 01:05:37;;;;;;;23.32;12.85;;;;;;;0.24;66.59;102844.97;1727699;83;25847;-63
2021/11/11 01:08:06;;;;;;;20.17;12.20;;;;;;;0.20;66.82;102828.25;1730955;81;26190;-64
2021/11/11 01:10:34;;;;;;;18.02;12.47;;;;;;;0.20;67.06;102838.84;1740931;82;25323;-64
2021/11/11 01:13:01;;;;;;;18.92;11.95;;;;;;;0.22;67.38;102827.79;1752613;81;28326;-63
2021/11/11 01:15:32;;;;;;;22.25;13.75;;;;;;;0.19;67.45;102822.95;1755096;81;25786;-64
2021/11/11 01:18:03;;;;;;;20.17;12.82;;;;;;;0.19;67.08;102831.78;1769009;81;25813;-64
2021/11/11 01:20:30;;;;;;;20.43;12.15;;;;;;;0.23;67.31;102826.00;1763927;80;25823;-64
2021/11/11 01:22:58;;;;;;;19.12;12.75;;;;;;;0.20;67.35;102820.73;1754427;80;25770;-64
2021/11/11 01:25:29;;;;;;;22.77;13.15;;;;;;;0.15;68.99;102816.81;1758148;81;27426;-63
2021/11/11 01:27:57;;;;;;;20.60;12.05;;;;;;;0.11;68.75;102812.48;1739102;81;26532;-63
2021/11/11 01:30:28;;;;;;;21.17;13.03;;;;;;;0.08;68.38;102812.07;1738318;82;25830;-63
2021/11/11 01:32:57;;;;;;;19.17;11.95;;;;;;;0.05;69.09;102804.16;1753622;80;26266;-63
2021/11/11 01:35:25;;;;;;;16.90;11.97;;;;;;;0.08;68.90;102800.59;1758980;80;26483;-63
2021/11/11 01:37:52;;;;;;;20.92;12.35;;;;;;;0.11;69.20;102806.72;1775470;80;27407;-63
2021/11/11 01:40:19;;;;;;;23.73;12.07;;;;;;;0.12;68.80;102810.27;1769151;80;25789;-63
2021/11/11 01:42:56;;;;;;;22.50;13.05;;;;;;;0.11;68.75;102798.78;1754258;80;25838;-63
2021/11/11 01:45:31;;;;;;;20.75;12.33;;;;;;;0.13;68.58;102804.94;1745326;82;26241;-63
2021/11/11 01:48:02;;;;;;;23.25;13.55;;;;;;;0.18;68.75;102806.67;1744830;82;25720;-63
2021/11/11 01:50:31;;;;;;;21.20;12.28;;;;;;;0.19;68.90;102800.45;1800082;78;27478;-64
2021/11/11 01:53:01;;;;;;;20.02;13.05;;;;;;;0.20;68.85;102812.80;1822285;77;25714;-64
2021/11/11 01:55:30;;;;;;;18.75;11.95;;;;;;;0.22;68.75;102807.05;1808656;78;25766;-64
2021/11/11 01:57:59;;;;;;;19.32;12.23;;;;;;;0.21;69.46;102798.23;1831610;76;25758;-64
2021/11/11 02:00:34;;;;;;;19.00;12.20;;;;;;;0.18;69.04;102792.97;1791287;79;26501;-63
2021/11/11 02:03:05;;;;;;;23.73;12.63;;;;;;;0.14;69.39;102794.78;1807746;78;27530;-63
2021/11/11 02:05:36;;;;;;;19.90;12.82;;;;;;;0.10;69.17;102790.87;1789312;78;25833;-63
2021/11/11 02:08:04;;;;;;;19.70;11.85;;;;;;;0.08;69.36;102800.59;1793552;79;25782;-63
2021/11/11 02:10:33;;;;;;;22.40;12.18;;;;;;;0.08;69.28;102800.16;1774062;79;25752;-63
2021/11/11 02:13:03;;;;;;;18.05;12.80;;;;;;;0.07;69.13;102785.17;1825568;78;26430;-63
2021/11/11 02:15:31;;;;;;;21.33;13.03;;;;;;;0.03;69.38;102790.52;1832709;78;27442;-63
2021/11/11 02:17:59;;;;;;;21.45;12.18;;;;;;;0.04;69.30;102799.75;1800586;78;25999;-63
2021/11/11 02:20:36;;;;;;;22.22;13.00;;;;;;;0.09;70.39;102787.33;1832863;76;25752;-63
2021/11/11 02:23:17;;;;;;;22.55;12.07;;;;;;;0.19;70.07;102792.08;1809541;78;25739;-63
2021/11/11 02:25:59;;;;;;;18.65;12.90;;;;;;;0.22;69.75;102791.16;1805526;79;26469;-63
2021/11/11 02:28:29;;;;;;;24.25;13.98;;;;;;;0.20;69.35;102781.03;1773830;78;27496;-63
2021/11/11 02:30:56;;;;;;;20.15;12.65;;;;;;;0.19;69.47;102784.56;1799581;79;25844;-63
2021/11/11 02:33:27;;;;;;;20.45;12.47;;;;;;;0.19;69.18;102784.56;1803244;78;25947;-63
2021/11/11 02:35:56;;;;;;;19.52;12.43;;;;;;;0.18;69.39;102781.52;1801091;78;25779;-63
2021/11/11 02:38:24;;;;;;;27.80;12.63;;;;;;;0.18;69.34;102777.55;1803673;78;25771;-63
2021/11/11 02:40:52;;;;;;;19.40;12.68;;;;;;;0.20;69.46;102773.98;1832759;77;27451;-63
2021/11/11 02:43:20;;;;;;;22.22;13.60;;;;;;;0.23;69.84;102767.30;1808393;78;25813;-63
2021/11/11 02:45:51;;;;;;;19.85;12.93;;;;;;;0.23;69.78;102772.59;1785353;78;25760;-63
2021/11/11 02:48:22;;;;;;;26.95;12.80;;;;;;;0.21;69.79;102772.20;1829864;76;25807;-63
2021/11/11 02:50:53;;;;;;;18.35;13.18;;;;;;;0.24;69.76;102784.08;1800935;77;25764;-64
2021/11/11 02:53:20;;;;;;;21.40;13.80;;;;;;;0.23;69.87;102776.56;1804268;78;27426;-63
2021/11/11 02:55:50;;;;;;;23.02;13.53;;;;;;;0.22;69.68;102775.27;1799077;78;25746;-63
2021/11/11 02:58:18;;;;;;;21.35;13.65;;;;;;;0.22;69.65;102770.88;1799943;79;25818;-63
2021/11/11 03:01:03;;;;;;;20.65;12.45;;;;;;;0.23;69.48;102768.63;1779071;79;25753;-64
2021/11/11 03:03:32;;;;;;;21.30;12.78;;;;;;;0.22;69.19;102763.36;1807131;78;25675;-63
2021/11/11 03:06:00;;;;;;;22.22;11.95;;;;;;;0.21;69.27;102753.67;1799621;79;28287;-63
2021/11/11 03:08:27;;;;;;;21.75;12.65;;;;;;;0.16;69.16;102759.02;1800221;78;25841;-63
2021/11/11 03:10:57;;;;;;;19.77;13.78;;;;;;;0.13;69.29;102748.50;1822428;77;25765;-63
2021/11/11 03:13:26;;;;;;;19.40;12.68;;;;;;;0.06;70.26;102750.77;1800994;78;25786;-63
2021/11/11 03:15:56;;;;;;;18.98;12.70;;;;;;;0.00;70.20;102739.84;1798252;78;25813;-63
2021/11/11 03:18:23;;;;;;;20.48;12.43;;;;;;;-0.03;70.06;102752.63;1799878;79;28115;-63
2021/11/11 03:20:51;;;;;;;21.30;13.00;;;;;;;-0.01;71.29;102732.33;1799616;79;25750;-63
2021/11/11 03:23:18;;;;;;;21.07;12.68;;;;;;;-0.07;70.88;102735.49;1818918;78;25773;-62
2021/11/11 03:25:47;;;;;;;22.37;12.78;;;;;;;-0.06;70.88;102725.34;1801344;78;26415;-63
2021/11/11 03:28:14;;;;;;;21.80;13.70;;;;;;;-0.09;70.95;102730.23;1832842;76;25830;-62
2021/11/11 03:30:43;;;;;;;18.57;12.63;;;;;;;-0.05;72.14;102728.41;1820941;78;27414;-63
2021/11/11 03:33:10;;;;;;;21.52;13.20;;;;;;;-0.10;71.78;102723.19;1802014;78;25793;-63
2021/11/11 03:35:39;;;;;;;21.10;13.13;;;;;;;-0.11;72.22;102719.25;1799668;78;25805;-63
2021/11/11 03:38:09;;;;;;;18.65;12.30;;;;;;;-0.19;71.68;102724.19;1799715;79;26348;-62
2021/11/11 03:40:42;;;;;;;19.77;12.78;;;;;;;-0.18;71.56;102731.20;1809927;78;25765;-62
2021/11/11 03:43:10;;;;;;;21.25;13.15;;;;;;;-0.17;71.43;102728.98;1795323;79;28189;-62
2021/11/11 03:45:40;;;;;;;24.15;13.00;;;;;;;-0.13;71.67;102726.31;1805102;78;25964;-62
2021/11/11 03:48:07;;;;;;;21.57;12.90;;;;;;;-0.13;71.26;102723.20;1805200;79;25829;-62
2021/11/11 03:50:35;;;;;;;21.20;12.85;;;;;;;-0.12;71.21;102737.33;1820528;77;25772;-63
2021/11/11 03:53:04;;;;;;;23.40;12.35;;;;;;;-0.12;71.25;102738.66;1808352;77;25746;-63
2021/11/11 03:55:32;;;;;;;23.20;13.60;;;;;;;-0.09;71.61;102727.58;1804690;78;28195;-63
2021/11/11 03:58:00;;;;;;;21.57;12.47;;;;;;;-0.13;71.29;102723.20;1805097;79;25750;-63
2021/11/11 04:00:29;;;;;;;23.02;12.18;;;;;;;-0.13;72.00;102732.47;1806417;78;25945;-63
2021/11/11 04:02:57;;;;;;;22.20;12.78;;;;;;;-0.17;71.46;102724.16;1795357;78;25991;-63
2021/11/11 04:05:24;;;;;;;24.80;13.43;;;;;;;-0.18;71.41;102731.20;1805388;79;25731;-63
2021/11/11 04:07:53;;;;;;;19.23;12.95;;;;;;;-0.13;71.36;102721.03;1804783;78;27513;-63
2021/11/11 04:10:20;;;;;;;26.27;13.90;;;;;;;-0.12;71.43;102720.14;1805272;78;25817;-64
2021/11/11 04:12:49;;;;;;;21.30;13.03;;;;;;;-0.14;72.14;102721.48;1805415;78;25734;-62
2021/11/11 04:15:17;;;;;;;20.27;13.10;;;;;;;-0.13;71.84;102721.03;1806043;78;25848;-62
2021/11/11 04:17:44;;;;;;;24.52;14.18;;;;;;;-0.12;71.73;102722.32;1821631;77;25777;-62
2021/11/11 04:20:12;;;;;;;20.02;12.90;;;;;;;-0.09;71.80;102720.97;1821618;77;26807;-62
2021/11/11 04:22:41;;;;;;;20.30;12.55;;;;;;;-0.06;71.92;102714.33;1812129;78;26415;-62
2021/11/11 04:25:15;;;;;;;19.07;12.40;;;;;;;-0.01;72.04;102721.74;1804969;78;25771;-62
2021/11/11 04:27:47;;;;;;;20.90;13.62;;;;;;;0.02;71.94;102718.64;1805073;78;26485;-62
2021/11/11 04:32:52;;;;;;;18.67;12.70;;;;;;;0.06;71.63;102719.01;1795391;78;27459;-62
2021/11/11 04:35:19;;;;;;;19.77;11.97;;;;;;;0.11;71.59;102722.03;1768147;78;25674;-62
2021/11/11 04:38:10;;;;;;;24.07;12.23;;;;;;;0.13;71.47;102716.27;1822130;77;25730;-62
2021/11/11 04:43:47;;;;;;;17.35;11.55;;;;;;;0.13;71.17;102729.50;1823924;77;25678;-63
2021/11/11 04:49:07;;;;;;;18.15;11.55;;;;;;;-0.01;71.07;102724.85;1825796;78;25767;-62
2021/11/11 04:59:59;;;;;;;20.40;12.28;;;;;;;-0.04;70.78;102716.48;1819520;77;27462;-63
2021/11/11 05:05:00;;;;;;;22.13;12.60;;;;;;;-0.04;70.74;102721.77;1818857;77;25797;-63
2021/11/11 05:07:27;;;;;;;26.33;14.73;;;;;;;-0.06;70.78;102714.33;1811026;78;25761;-63
2021/11/11 05:09:54;;;;;;;24.37;13.80;;;;;;;-0.08;70.87;102716.54;1811022;78;25838;-62
2021/11/11 05:12:22;;;;;;;20.05;11.33;;;;;;;-0.09;70.83;102713.03;1810602;79;27582;-62
2021/11/11 05:14:50;;;;;;;20.50;11.85;;;;;;;-0.08;70.89;102721.41;1810437;79;25781;-62
2021/11/11 05:17:22;;;;;;;20.75;11.50;;;;;;;-0.04;71.30;102720.45;1810419;79;25804;-62
2021/11/11 05:19:46;;;;;;;20.92;11.97;;;;;;;-0.02;71.63;102716.02;1812228;77;26169;-62
2021/11/11 05:22:13;;;;;;;25.17;13.35;;;;;;;0.07;71.56;102715.04;1776041;79;26594;-62
2021/11/11 05:24:40;;;;;;;20.70;12.07;;;;;;;0.12;71.38;102710.55;1769587;81;27788;-63
2021/11/11 05:27:08;;;;;;;24.07;13.65;;;;;;;0.20;71.34;102716.17;1780892;78;25781;-63
2021/11/11 05:29:37;;;;;;;26.07;12.73;;;;;;;0.26;71.31;102709.03;1815959;77;25778;-63
2021/11/11 05:32:07;;;;;;;28.57;13.30;;;;;;;0.31;71.64;102714.27;1809249;79;26207;-64
2021/11/11 05:34:36;;;;;;;24.52;14.23;;;;;;;0.33;71.24;102715.55;1800002;78;25754;-64
2021/11/11 05:37:05;;;;;;;28.57;15.72;;;;;;;0.34;71.09;102716.88;1813997;78;27689;-65
2021/11/11 05:39:34;;;;;;;21.52;12.88;;;;;;;0.36;71.11;102711.55;1830430;78;25728;-64
2021/11/11 05:42:05;;;;;;;23.12;13.95;;;;;;;0.38;71.34;102702.68;1828853;76;25725;-64
2021/11/11 05:44:34;;;;;;;24.65;12.85;;;;;;;0.41;71.36;102705.73;1823965;78;25825;-64
2021/11/11 05:47:01;;;;;;;28.07;12.98;;;;;;;0.44;71.53;102715.86;1809212;77;25742;-63
2021/11/11 05:49:30;;;;;;;23.00;12.23;;;;;;;0.46;71.54;102710.06;1811482;77;27458;-64
2021/11/11 05:51:57;;;;;;;25.82;14.28;;;;;;;0.48;71.64;102706.52;1821645;78;25457;-63
2021/11/11 05:54:24;;;;;;;31.30;11.78;;;;;;;0.51;71.74;102717.08;1819600;78;25766;-63
2021/11/11 05:56:51;;;;;;;26.55;14.07;;;;;;;0.56;71.58;102703.30;1805909;79;25733;-64
2021/11/11 05:59:18;;;;;;;30.50;13.83;;;;;;;0.60;71.67;102707.66;1806166;79;25715;-64
2021/11/11 06:01:45;;;;;;;40.00;14.63;;;;;;;0.67;71.53;102702.69;1806280;79;29570;-63
2021/11/11 06:04:12;;;;;;;29.70;13.05;;;;;;;0.85;71.63;102712.56;1807345;78;25671;-63
2021/11/11 06:06:41;;;;;;;37.13;14.93;;;;;;;1.05;71.46;102705.59;1806032;78;25722;-63
2021/11/11 06:09:08;;;;;;;18.37;11.83;;;;;;;1.20;71.11;102711.97;1806342;79;26295;-64
2021/11/11 06:11:35;;;;;;;20.30;11.08;;;;;;;1.27;70.60;102707.87;1806296;79;25813;-63
2021/11/11 06:14:02;;;;;;;17.80;11.45;;;;;;;1.25;70.43;102714.53;1813827;78;28685;-63
2021/11/11 06:16:31;;;;;;;24.27;11.65;;;;;;;1.25;70.47;102712.75;1822838;78;26043;-64
2021/11/11 06:18:59;;;;;;;19.67;11.60;;;;;;;1.30;70.38;102707.83;1822773;77;26442;-64
2021/11/11 06:21:26;;;;;;;25.17;12.03;;;;;;;1.33;70.67;102692.73;1822965;78;25681;-63
2021/11/11 06:23:54;;;;;;;25.32;12.13;;;;;;;1.36;70.54;102705.91;1822935;77;25746;-63
2021/11/11 06:26:23;;;;;;;21.75;11.18;;;;;;;1.44;70.50;102692.95;1821545;77;27555;-64
2021/11/11 06:28:52;;;;;;;23.77;11.08;;;;;;;1.51;70.41;102688.83;1808150;77;25631;-65
2021/11/11 06:31:20;;;;;;;20.12;10.10;;;;;;;1.59;70.28;102686.47;1814589;77;26423;-62
2021/11/11 06:33:48;;;;;;;19.60;10.63;;;;;;;1.67;70.24;102680.55;1800428;78;25802;-62
2021/11/11 06:36:17;;;;;;;21.70;10.30;;;;;;;1.77;70.16;102677.28;1822804;78;26096;-64
2021/11/11 06:38:52;;;;;;;20.37;10.72;;;;;;;1.83;69.90;102678.03;1822405;77;28215;-66
2021/11/11 06:41:34;;;;;;;18.07;9.60;;;;;;;1.86;69.62;102676.62;1803379;77;25766;-65
2021/11/11 06:44:01;;;;;;;23.92;10.08;;;;;;;1.92;69.31;102668.98;1826447;77;25518;-63
2021/11/11 06:46:28;;;;;;;27.27;11.05;;;;;;;1.97;69.36;102659.59;1819477;78;25903;-65
2021/11/11 06:48:59;;;;;;;16.60;10.00;;;;;;;2.01;69.26;102659.95;1808970;77;25820;-65
2021/11/11 06:51:37;;;;;;;17.82;10.70;;;;;;;2.06;69.11;102659.39;1811410;78;27444;-64
2021/11/11 06:54:08;;;;;;;21.57;10.40;;;;;;;2.16;69.05;102652.07;1811279;78;25802;-62
2021/11/11 06:56:36;;;;;;;25.20;10.10;;;;;;;2.26;68.85;102656.73;1820856;78;25754;-64
2021/11/11 06:59:04;;;;;;;29.52;11.35;;;;;;;2.32;68.74;102640.64;1817766;78;25710;-63
2021/11/11 07:01:32;;;;;;;17.52;9.25;;;;;;;2.39;68.66;102644.89;1825110;77;25610;-65
2021/11/11 07:04:00;;;;;;;22.45;10.58;;;;;;;2.48;68.26;102650.45;1825555;76;27468;-63
2021/11/11 07:06:27;;;;;;;22.37;9.90;;;;;;;2.56;68.17;102642.28;1820332;78;25447;-63
2021/11/11 07:08:54;;;;;;;19.42;9.80;;;;;;;2.68;67.97;102641.98;1829715;76;25683;-63
2021/11/11 07:11:21;;;;;;;20.50;10.55;;;;;;;2.79;66.76;102641.25;1819254;77;25712;-63
2021/11/11 07:13:48;;;;;;;17.90;9.13;;;;;;;2.90;66.57;102645.43;1829455;77;25731;-63
2021/11/11 07:16:16;;;;;;;20.90;8.75;;;;;;;3.02;65.58;102635.78;1831641;78;28118;-63
2021/11/11 07:18:43;;;;;;;32.10;9.43;;;;;;;3.16;65.25;102639.86;1819782;78;25774;-63
2021/11/11 07:21:10;;;;;;;28.30;10.08;;;;;;;3.31;64.09;102631.92;1829557;76;25683;-63
2021/11/11 07:23:37;;;;;;;36.53;9.23;;;;;;;3.40;64.28;102626.34;1820768;77;25861;-63
2021/11/11 07:26:04;;;;;;;19.45;8.53;;;;;;;3.54;62.95;102618.81;1824557;77;25705;-63
2021/11/11 07:28:31;;;;;;;17.82;8.00;;;;;;;3.67;61.50;102607.34;1831034;78;27523;-64
2021/11/11 07:30:59;;;;;;;18.73;7.92;;;;;;;3.81;60.52;102610.06;1833326;77;25783;-64
2021/11/11 07:33:35;;;;;;;15.95;7.37;;;;;;;3.94;61.48;102603.90;1770643;79;25759;-65
2021/11/11 07:36:04;;;;;;;16.37;8.13;;;;;;;4.07;60.31;102598.14;1765119;80;25728;-64
2021/11/11 07:38:33;;;;;;;18.90;8.75;;;;;;;4.25;59.69;102601.12;1764538;81;25747;-64
2021/11/11 07:41:00;;;;;;;19.57;8.18;;;;;;;4.38;60.40;102596.27;1763713;79;27538;-64
2021/11/11 07:43:27;;;;;;;19.32;8.03;;;;;;;4.52;60.30;102602.47;1737408;82;25825;-62
2021/11/11 07:45:54;;;;;;;23.45;8.55;;;;;;;4.65;59.63;102597.11;1739179;82;25768;-63
2021/11/11 07:48:22;;;;;;;22.10;9.43;;;;;;;4.82;59.37;102593.88;1720739;82;25726;-62
2021/11/11 07:50:49;;;;;;;17.05;8.00;;;;;;;5.00;58.60;102591.00;1733016;82;25867;-64
2021/11/11 07:53:16;;;;;;;18.65;7.78;;;;;;;5.20;58.55;102593.89;1730515;82;27483;-62
2021/11/11 07:55:43;;;;;;;23.95;8.45;;;;;;;5.35;57.61;102585.31;1728214;81;25861;-63
2021/11/11 07:58:11;;;;;;;21.62;8.28;;;;;;;5.54;56.64;102580.13;1741463;81;25769;-63
2021/11/11 08:00:41;;;;;;;35.23;8.48;;;;;;;5.73;55.71;102582.09;1744021;80;25734;-63
2021/11/11 08:03:08;;;;;;;20.65;9.00;;;;;;;5.88;56.49;102581.48;1740244;80;25771;-63
2021/11/11 08:05:35;;;;;;;21.15;8.33;;;;;;;6.03;56.33;102574.69;1749438;80;28152;-63
2021/11/11 08:08:02;;;;;;;18.67;6.80;;;;;;;6.21;56.27;102576.20;1740662;79;25765;-63
2021/11/11 08:10:30;;;;;;;17.05;6.70;;;;;;;6.42;54.82;102575.77;1750562;79;25717;-62
2021/11/11 08:12:57;;;;;;;15.30;5.00;;;;;;;6.63;51.47;102570.00;1738708;81;25656;-62
2021/11/11 08:15:24;;;;;;;11.88;4.87;;;;;;;6.84;50.23;102569.53;1738616;81;26027;-62
2021/11/11 08:17:52;;;;;;;11.22;4.58;;;;;;;7.03;48.80;102566.03;1798179;76;27607;-64
2021/11/11 08:20:20;;;;;;;24.65;5.58;;;;;;;7.22;46.73;102573.23;1813421;78;25772;-62
2021/11/11 08:22:49;;;;;;;21.45;4.47;;;;;;;7.39;46.49;102567.97;1777169;79;25477;-62
2021/11/11 08:25:18;;;;;;;9.75;4.70;;;;;;;7.59;44.74;102575.06;1801638;78;25698;-63
2021/11/11 08:27:46;;;;;;;17.92;4.47;;;;;;;7.77;43.61;102563.93;1789926;78;25698;-63
2021/11/11 08:30:16;;;;;;;12.93;5.90;;;;;;;7.92;43.64;102566.83;1822863;78;28120;-63
2021/11/11 08:32:46;;;;;;;16.32;6.35;;;;;;;8.09;44.23;102572.23;1809767;78;25788;-63
2021/11/11 08:35:14;;;;;;;18.45;6.12;;;;;;;8.27;44.50;102573.59;1804224;77;25750;-63
2021/11/11 08:37:44;;;;;;;16.62;4.60;;;;;;;8.44;46.11;102571.39;1804300;78;25740;-63
2021/11/11 08:40:13;;;;;;;12.95;4.47;;;;;;;8.81;43.12;102570.87;1792942;77;26739;-62
2021/11/11 08:42:40;;;;;;;11.70;3.98;;;;;;;9.33;41.23;102560.96;1813404;76;27422;-62
2021/11/11 08:45:09;;;;;;;13.60;4.80;;;;;;;10.19;40.17;102570.02;1815455;78;26495;-62
2021/11/11 08:47:37;;;;;;;29.67;5.17;;;;;;;11.08;38.09;102558.45;1813681;77;25794;-62
2021/11/11 08:50:07;;;;;;;14.38;4.45;;;;;;;11.93;36.22;102554.00;1811861;77;25952;-63
2021/11/11 08:52:35;;;;;;;14.53;4.40;;;;;;;12.53;35.24;102550.02;1808104;77;26331;-63
2021/11/11 08:55:04;;;;;;;9.18;4.92;;;;;;;13.12;34.55;102552.67;1764591;79;28293;-66
2021/11/11 08:57:31;;;;;;;11.45;4.37;;;;;;;13.63;34.36;102544.14;1741779;80;25732;-63
2021/11/11 08:59:58;;;;;;;12.95;4.97;;;;;;;14.08;34.32;102552.02;1752409;80;25804;-63
2021/11/11 09:02:25;;;;;;;7.17;4.45;;;;;;;14.58;34.21;102540.62;1746547;81;26180;-63
2021/11/11 09:04:52;;;;;;;13.45;5.30;;;;;;;15.07;34.30;102532.70;1809560;77;25901;-63
2021/11/11 09:07:19;;;;;;;13.55;4.55;;;;;;;15.57;33.40;102527.39;1767831;79;27524;-63
2021/11/11 09:09:47;;;;;;;13.65;4.83;;;;;;;16.01;30.50;102518.78;1769779;79;25735;-64
2021/11/11 09:12:15;;;;;;;10.78;4.12;;;;;;;16.27;30.34;102527.41;1768919;79;25845;-64
2021/11/11 09:14:42;;;;;;;6.72;3.95;;;;;;;16.59;31.93;102522.92;1782828;79;25788;-64
2021/11/11 09:17:10;;;;;;;9.48;4.30;;;;;;;16.99;29.54;102521.31;1777853;79;26304;-64
2021/11/11 09:19:37;;;;;;;12.88;4.25;;;;;;;17.23;28.46;102513.34;1764782;79;27470;-64
2021/11/11 09:22:04;;;;;;;9.55;3.67;;;;;;;17.35;27.68;102514.45;1752514;79;25945;-63
2021/11/11 09:24:31;;;;;;;15.50;4.08;;;;;;;17.47;28.26;102512.48;1760349;80;25745;-63
2021/11/11 09:27:02;;;;;;;11.08;4.33;;;;;;;17.71;27.43;102514.47;1761142;81;25823;-66
2021/11/11 09:29:29;;;;;;;14.15;3.77;;;;;;;17.89;28.27;102505.09;1760515;81;25917;-64
2021/11/11 09:31:56;;;;;;;9.05;4.50;;;;;;;18.24;28.06;102500.98;1764819;81;27473;-63
2021/11/11 09:34:23;;;;;;;9.03;3.80;;;;;;;18.53;28.92;102501.42;1757541;81;26008;-64
2021/11/11 09:36:50;;;;;;;7.40;3.98;;;;;;;18.89;27.98;102502.48;1762991;80;26538;-63
2021/11/11 09:39:17;;;;;;;11.93;4.83;;;;;;;19.26;28.37;102489.85;1759434;80;25901;-63
2021/11/11 09:41:45;;;;;;;7.12;3.98;;;;;;;19.79;27.07;102480.52;1762291;79;25782;-64
2021/11/11 09:44:12;;;;;;;9.95;4.55;;;;;;;20.09;25.29;102477.92;1760953;80;28240;-63
2021/11/11 09:46:40;;;;;;;6.72;4.10;;;;;;;20.24;25.50;102472.76;1756874;81;25759;-64
2021/11/11 09:49:07;;;;;;;6.75;4.30;;;;;;;20.47;25.54;102465.42;1755252;80;26450;-63
2021/11/11 09:51:35;;;;;;;13.60;4.12;;;;;;;20.63;26.07;102453.70;1734619;81;26542;-65
2021/11/11 09:59:32;;;;;;;11.43;3.83;;;;;;;20.85;24.99;102440.01;1740963;80;25832;-65
2021/11/11 10:02:01;;;;;;;5.10;3.62;;;;;;;21.23;23.44;102444.61;1741133;79;25818;-64
2021/11/11 10:04:29;;;;;;;6.55;3.92;;;;;;;21.30;23.21;102427.51;1752995;79;26430;-65
2021/11/11 10:06:57;;;;;;;10.50;3.65;;;;;;;21.49;23.65;102420.89;1757584;79;25798;-65
2021/11/11 10:09:26;;;;;;;9.13;3.60;;;;;;;21.68;22.51;102417.88;1766669;80;27452;-65
2021/11/11 10:12:01;;;;;;;11.85;4.00;;;;;;;21.77;23.51;102418.72;1766174;79;25951;-65
2021/11/11 10:14:36;;;;;;;10.05;3.77;;;;;;;22.21;23.04;102424.36;1760714;80;25763;-63
2021/11/11 10:17:09;;;;;;;9.70;3.50;;;;;;;22.49;22.80;102411.12;1751560;81;25814;-66
2021/11/11 10:19:54;;;;;;;5.90;3.40;;;;;;;22.82;22.65;102413.75;1760994;80;26141;-67
2021/11/11 10:22:37;;;;;;;8.50;3.15;;;;;;;23.10;22.50;102405.04;1749658;80;29276;-66
2021/11/11 10:25:13;;;;;;;12.80;3.40;;;;;;;23.33;22.56;102404.27;1791327;78;25852;-63
2021/11/11 10:27:43;;;;;;;7.20;3.27;;;;;;;23.52;20.99;102391.09;1784737;79;25772;-63
2021/11/11 10:30:23;;;;;;;9.08;3.00;;;;;;;23.49;20.83;102395.57;1773480;79;26056;-63
2021/11/11 10:33:07;;;;;;;3.92;2.70;;;;;;;23.57;22.23;102384.52;1771584;80;25731;-64
2021/11/11 10:35:38;;;;;;;5.95;3.10;;;;;;;23.86;22.22;102380.16;1778389;80;27473;-63
2021/11/11 10:38:09;;;;;;;4.08;2.47;;;;;;;24.18;21.72;102387.77;1774074;80;25770;-63
2021/11/11 10:40:43;;;;;;;12.75;2.98;;;;;;;24.30;21.90;102378.53;1778857;80;25861;-63
2021/11/11 10:43:26;;;;;;;6.22;2.33;;;;;;;24.32;21.15;102375.95;1770166;79;25779;-63
2021/11/11 10:45:52;;;;;;;7.75;2.45;;;;;;;24.47;20.69;102378.70;1748068;79;25838;-65
2021/11/11 10:48:25;;;;;;;9.08;2.70;;;;;;;24.69;20.09;102369.17;1771989;80;27499;-65
2021/11/11 10:50:57;;;;;;;3.95;2.25;;;;;;;24.92;18.86;102365.44;1773894;80;25825;-65
2021/11/11 10:53:29;;;;;;;12.98;2.72;;;;;;;24.77;19.49;102364.09;1803666;78;25750;-65
2021/11/11 10:56:00;;;;;;;8.23;2.55;;;;;;;24.69;19.15;102349.41;1768342;80;25770;-63
2021/11/11 10:58:31;;;;;;;10.15;2.87;;;;;;;24.62;19.65;102340.16;1743801;80;25820;-64
2021/11/11 11:01:09;;;;;;;15.30;3.45;;;;;;;24.79;19.64;102335.33;1745186;79;27512;-63
2021/11/11 11:03:43;;;;;;;6.33;2.60;;;;;;;24.76;18.53;102330.20;1776703;79;25740;-62
2021/11/11 11:06:13;;;;;;;6.15;2.90;;;;;;;24.57;18.81;102322.52;1821810;78;25773;-61
2021/11/11 11:08:46;;;;;;;8.85;3.10;;;;;;;24.38;18.89;102327.05;1772940;79;25776;-62
2021/11/11 11:11:18;;;;;;;6.47;2.60;;;;;;;24.26;18.86;102312.59;1812321;79;26287;-64
2021/11/11 11:13:49;;;;;;;16.55;3.05;;;;;;;24.08;19.11;102312.45;1811583;78;27463;-64
2021/11/11 11:16:23;;;;;;;29.75;3.42;;;;;;;23.90;18.78;102307.28;1771969;80;25683;-64
2021/11/11 11:19:08;;;;;;;8.13;2.80;;;;;;;23.63;19.26;102312.34;1812834;78;25573;-64
2021/11/11 11:21:40;;;;;;;12.65;2.17;;;;;;;23.57;20.04;102299.37;1773021;80;25809;-64
2021/11/11 11:24:12;;;;;;;2.55;2.08;;;;;;;23.39;19.42;102301.92;1811612;79;25938;-64
2021/11/11 11:26:47;;;;;;;4.28;2.42;;;;;;;22.90;20.03;102303.64;1763368;80;27542;-64
2021/11/11 11:29:26;;;;;;;7.17;2.80;;;;;;;22.52;20.07;102298.85;1807841;77;25798;-64
2021/11/11 11:32:08;;;;;;;9.80;2.37;;;;;;;22.20;20.37;102298.77;1786198;77;25657;-64
2021/11/11 11:34:40;;;;;;;4.65;2.00;;;;;;;21.73;20.81;102299.06;1800028;78;26507;-65
2021/11/11 11:37:17;;;;;;;4.15;2.37;;;;;;;21.38;21.02;102297.53;1820593;77;25769;-62
2021/11/11 11:39:57;;;;;;;8.28;2.55;;;;;;;20.95;20.97;102309.44;1772627;80;27475;-62
2021/11/11 11:42:30;;;;;;;8.18;2.55;;;;;;;20.48;21.69;102297.14;1811579;78;25705;-64
2021/11/11 11:45:09;;;;;;;10.80;3.35;;;;;;;20.08;22.02;102297.80;1771732;80;25861;-65
2021/11/11 11:47:43;;;;;;;7.60;2.87;;;;;;;19.66;22.57;102286.59;1830728;78;26421;-65
2021/11/11 11:50:24;;;;;;;;;;;;;;;19.11;22.84;102265.83;1832538;77;25781;-65
2021/11/11 11:52:57;;;;;;;7.65;2.55;;;;;;;18.69;23.23;102269.97;1822232;77;27556;-65
2021/11/11 11:58:22;;;;;;;8.05;3.05;;;;;;;17.70;24.47;102265.08;1831786;76;25725;-67